Time;durP1;ratioP1;P1;durP2;ratioP2;P2;SDS_P1;SDS_P2;PMS_P1;PMS_P2;Temp;Humidity;BMP_temperature;BMP_pressure;BME280_temperature;BME280_humidity;BME280_pressure;Samples;Min_cycle;Max_cycle;Signal;HPM_P1;HPM_P2
2021/10/10 00:01:15;;;;;;;17.03;15.10;;;8.70;99.90;;;;;;4966111;29;20504;-91
2021/10/10 00:03:41;;;;;;;20.37;18.10;;;;;;;;;;4964847;29;20429;-92
2021/10/10 00:06:08;;;;;;;20.40;18.30;;;;;;;;;;4948799;29;20501;-90
2021/10/10 00:08:36;;;;;;;20.30;18.20;;;8.70;99.90;;;;;;4949242;29;20428;-93
2021/10/10 00:11:03;;;;;;;21.87;19.00;;;;;;;;;;4966154;29;20437;-92
2021/10/10 00:13:32;;;;;;;20.70;15.97;;;8.70;99.90;;;;;;4951880;29;20848;-91
2021/10/10 00:16:00;;;;;;;20.40;16.83;;;7.80;99.90;;;;;;4949234;29;20466;-91
2021/10/10 00:18:29;;;;;;;21.23;17.63;;;8.50;99.90;;;;;;4949640;29;20431;-94
2021/10/10 00:20:55;;;;;;;19.30;17.03;;;;;;;;;;4950681;28;20442;-92
2021/10/10 00:23:21;;;;;;;19.67;17.70;;;8.60;99.90;;;;;;4952460;29;20430;-92
2021/10/10 00:25:47;;;;;;;23.83;18.43;;;;;;;;;;4953647;29;20854;-91
2021/10/10 00:28:13;;;;;;;20.47;17.47;;;;;;;;;;4953740;29;20198;-91
2021/10/10 00:30:39;;;;;;;22.50;18.30;;;;;;;;;;4955086;29;20429;-91
2021/10/10 00:33:05;;;;;;;19.40;17.47;;;8.50;99.90;;;;;;4968494;29;20490;-92
2021/10/10 00:35:31;;;;;;;24.57;18.90;;;;;;;;;;4968441;29;20481;-91
2021/10/10 00:37:56;;;;;;;17.73;15.83;;;8.40;99.90;;;;;;4953491;29;20190;-92
2021/10/10 00:40:23;;;;;;;22.83;18.90;;;;;;;;;;4953920;29;20425;-91
2021/10/10 00:42:48;;;;;;;17.23;15.37;;;8.40;99.90;;;;;;4952899;29;20182;-92
2021/10/10 00:45:14;;;;;;;17.13;15.33;;;;;;;;;;4971112;29;20485;-91
2021/10/10 00:47:42;;;;;;;19.10;15.00;;;8.50;99.90;;;;;;4973734;29;20194;-91
2021/10/10 00:50:09;;;;;;;19.93;15.00;;;8.90;99.90;;;;;;4952805;29;20759;-90
2021/10/10 00:52:44;;;;;;;18.50;16.70;;;8.30;99.90;;;;;;4968650;29;20410;-92
2021/10/10 00:55:11;;;;;;;16.33;14.73;;;10.20;99.90;;;;;;4951974;29;20421;-92
2021/10/10 00:57:47;;;;;;;16.27;14.87;;;8.30;99.90;;;;;;4953852;29;20441;-91
2021/10/10 01:00:13;;;;;;;16.43;14.23;;;10.00;99.90;;;;;;4951017;29;20421;-92
2021/10/10 01:02:41;;;;;;;16.60;13.03;;;8.40;99.90;;;;;;4951976;29;20963;-92
2021/10/10 01:05:07;;;;;;;16.13;14.33;;;8.90;99.90;;;;;;4954223;29;20779;-92
2021/10/10 01:07:33;;;;;;;14.43;12.93;;;8.00;99.90;;;;;;4953356;29;20426;-92
2021/10/10 01:10:02;;;;;;;15.50;13.30;;;;;;;;;;4955721;29;20434;-91
2021/10/10 01:12:29;;;;;;;14.73;12.30;;;8.40;99.90;;;;;;4953235;29;20214;-91
2021/10/10 01:14:55;;;;;;;16.45;12.65;;;7.90;99.90;;;;;;4952462;29;20425;-92
2021/10/10 01:17:24;;;;;;;14.10;12.50;;;7.90;99.90;;;;;;4951800;29;20286;-91
2021/10/10 01:19:52;;;;;;;12.83;11.63;;;9.30;99.90;;;;;;4951651;29;20446;-92
2021/10/10 01:22:18;;;;;;;13.97;12.47;;;9.00;99.90;;;;;;4953136;29;20851;-91
2021/10/10 01:24:44;;;;;;;13.63;12.33;;;;;;;;;;4951793;29;20414;-92
2021/10/10 01:27:10;;;;;;;12.90;11.50;;;;;;;;;;4951367;29;20183;-92
2021/10/10 01:29:36;;;;;;;14.70;13.20;;;7.80;99.90;;;;;;4951765;29;20460;-92
2021/10/10 01:32:02;;;;;;;12.80;11.50;;;;;;;;;;4951437;29;20485;-92
2021/10/10 01:34:28;;;;;;;12.50;11.37;;;;;;;;;;4952482;29;20259;-92
2021/10/10 01:36:53;;;;;;;14.88;12.60;;;7.70;99.90;;;;;;4969605;29;20469;-92
2021/10/10 01:39:19;;;;;;;15.20;13.70;;;;;;;;;;4973262;29;20174;-91
2021/10/10 01:41:46;;;;;;;13.77;12.37;;;7.80;99.90;;;;;;4970415;29;20182;-92
2021/10/10 01:44:16;;;;;;;16.37;13.20;;;8.00;99.90;;;;;;4939573;29;20450;-91
2021/10/10 01:46:43;;;;;;;13.10;11.70;;;6.10;99.90;;;;;;4955428;29;20179;-92
2021/10/10 01:49:11;;;;;;;16.70;12.50;;;7.40;99.90;;;;;;4953015;29;20418;-90
2021/10/10 01:51:37;;;;;;;16.13;14.00;;;7.50;99.90;;;;;;4952173;29;20486;-92
2021/10/10 01:54:03;;;;;;;14.47;13.00;;;9.80;99.90;;;;;;4952799;29;20813;-92
2021/10/10 01:56:29;;;;;;;14.00;12.53;;;;;;;;;;4953873;29;20493;-92
2021/10/10 01:58:57;;;;;;;12.83;11.53;;;7.50;99.90;;;;;;4954087;29;20522;-92
2021/10/10 02:01:23;;;;;;;12.02;10.82;;;7.60;99.90;;;;;;4938836;29;20428;-91
2021/10/10 02:03:49;;;;;;;16.70;12.17;;;;;;;;;;4953598;29;20646;-90
2021/10/10 02:06:15;;;;;;;13.57;11.30;;;;;;;;;;4952843;29;20433;-91
2021/10/10 02:08:41;;;;;;;14.40;12.87;;;;;;;;;;4953748;29;20468;-91
2021/10/10 02:11:07;;;;;;;20.30;12.07;;;;;;;;;;4954718;29;20433;-91
2021/10/10 02:13:33;;;;;;;13.00;11.80;;;;;;;;;;4971114;29;20454;-91
2021/10/10 02:15:59;;;;;;;14.40;11.73;;;7.60;99.90;;;;;;4955282;29;20537;-91
2021/10/10 02:18:25;;;;;;;15.03;11.53;;;;;;;;;;4938108;29;20443;-92
2021/10/10 02:20:51;;;;;;;14.00;12.57;;;7.60;99.90;;;;;;4956846;29;20185;-92
2021/10/10 02:23:18;;;;;;;14.07;12.20;;;10.50;99.90;;;;;;4940170;29;20418;-91
2021/10/10 02:25:46;;;;;;;14.17;12.67;;;7.70;99.90;;;;;;4959773;29;20411;-91
2021/10/10 02:28:15;;;;;;;15.57;13.03;;;7.80;99.90;;;;;;4978920;29;20402;-90
2021/10/10 02:31:06;;;;;;;13.33;12.00;;;7.80;99.90;;;;;;4978730;29;20437;-92
2021/10/10 02:33:36;;;;;;;16.27;13.17;;;9.10;99.90;;;;;;4978230;29;20425;-91
2021/10/10 02:36:02;;;;;;;13.30;11.93;;;;;;;;;;4943855;29;20466;-90
2021/10/10 02:38:32;;;;;;;13.77;12.47;;;8.10;99.90;;;;;;4975654;29;20414;-92
2021/10/10 02:40:59;;;;;;;16.40;13.00;;;9.60;99.90;;;;;;4959854;29;20446;-91
2021/10/10 02:43:25;;;;;;;11.50;10.40;;;8.10;99.90;;;;;;4942824;29;20431;-91
2021/10/10 02:45:54;;;;;;;14.00;11.40;;;9.00;99.90;;;;;;4958860;29;20430;-88
2021/10/10 02:48:21;;;;;;;16.17;11.87;;;9.00;99.90;;;;;;4929190;29;20434;-91
2021/10/10 02:50:55;;;;;;;17.33;13.30;;;9.60;99.90;;;;;;4977964;29;20414;-92
2021/10/10 02:53:24;;;;;;;20.40;12.13;;;7.90;99.90;;;;;;4973916;29;20171;-91
2021/10/10 02:55:56;;;;;;;13.33;11.87;;;11.80;99.90;;;;;;4960533;29;20466;-92
2021/10/10 02:58:43;;;;;;;13.93;10.63;;;;;;;;;;4964905;29;20434;-92
2021/10/10 03:01:11;;;;;;;15.80;13.33;;;8.10;99.90;;;;;;4961071;29;20434;-91
2021/10/10 03:03:37;;;;;;;16.30;12.70;;;7.70;99.90;;;;;;4960577;29;20422;-90
2021/10/10 03:06:03;;;;;;;14.00;12.17;;;9.90;99.90;;;;;;4960511;28;20470;-92
2021/10/10 03:08:32;;;;;;;14.30;12.80;;;8.70;99.90;;;;;;4942796;29;20858;-90
2021/10/10 03:11:05;;;;;;;13.87;12.43;;;9.30;99.90;;;;;;4956908;29;20446;-91
2021/10/10 03:13:31;;;;;;;15.73;13.37;;;9.20;99.90;;;;;;4940587;29;20487;-91
2021/10/10 03:16:03;;;;;;;13.30;12.00;;;10.00;99.90;;;;;;4973375;29;20446;-90
2021/10/10 03:18:29;;;;;;;16.20;13.20;;;8.50;99.90;;;;;;4958398;29;20490;-91
2021/10/10 03:20:55;;;;;;;15.00;13.43;;;8.70;99.90;;;;;;4959740;29;20425;-91
2021/10/10 03:23:27;;;;;;;16.43;14.00;;;8.20;99.90;;;;;;4962118;28;20183;-91
2021/10/10 03:26:22;;;;;;;14.13;12.60;;;7.50;99.90;;;;;;4973362;28;20493;-91
2021/10/10 03:29:09;;;;;;;15.40;12.70;;;;;;;;;;4978570;28;20414;-91
2021/10/10 03:31:38;;;;;;;17.23;13.07;;;8.40;99.90;;;;;;4977545;29;20413;-90
2021/10/10 03:34:05;;;;;;;13.90;12.00;;;7.70;99.90;;;;;;4978781;28;20477;-91
2021/10/10 03:36:31;;;;;;;14.00;11.70;;;7.20;99.90;;;;;;4958955;29;20461;-91
2021/10/10 03:38:58;;;;;;;14.63;12.40;;;;;;;;;;4975314;29;20170;-91
2021/10/10 03:41:27;;;;;;;15.70;12.27;;;8.30;99.90;;;;;;4945051;29;20450;-91
2021/10/10 03:43:59;;;;;;;13.70;12.50;;;6.50;99.60;;;;;;4946337;28;20429;-92
2021/10/10 03:46:27;;;;;;;14.70;12.20;;;8.70;99.90;;;;;;4978088;28;20457;-91
2021/10/10 03:48:54;;;;;;;14.57;13.00;;;;;;;;;;4945917;29;20434;-90
2021/10/10 03:51:33;;;;;;;17.37;12.23;;;8.30;99.90;;;;;;4961661;28;20418;-90
2021/10/10 03:57:02;;;;;;;13.47;12.10;;;9.50;99.90;;;;;;4977804;28;21007;-91
2021/10/10 03:59:41;;;;;;;16.80;13.03;;;9.70;99.90;;;;;;4977505;28;20457;-91
2021/10/10 04:02:16;;;;;;;13.17;11.93;;;8.10;99.90;;;;;;4962306;28;20438;-93
2021/10/10 04:04:51;;;;;;;11.73;10.53;;;10.00;99.90;;;;;;4961538;28;20409;-92
2021/10/10 04:07:36;;;;;;;13.70;12.30;;;7.80;99.90;;;;;;4958678;29;20468;-92
2021/10/10 04:10:29;;;;;;;37.50;12.67;;;9.30;99.90;;;;;;4975258;28;20462;-91
2021/10/10 04:12:56;;;;;;;14.43;12.60;;;;;;;;;;4946176;29;20477;-92
2021/10/10 04:15:32;;;;;;;17.77;11.80;;;7.80;99.90;;;;;;4956642;29;20403;-92
2021/10/10 04:18:00;;;;;;;15.07;13.47;;;9.50;99.90;;;;;;4942162;29;20442;-91
2021/10/10 04:23:01;;;;;;;12.93;11.63;;;;;;;;;;5004721;23;20546;-91
2021/10/10 04:25:27;;;;;;;13.10;11.80;;;;;;;;;;4939642;29;20452;-92
2021/10/10 04:27:53;;;;;;;12.30;11.07;;;7.70;99.90;;;;;;4937906;29;20423;-91
2021/10/10 04:30:25;;;;;;;13.50;11.60;;;8.40;99.90;;;;;;4937282;29;20428;-92
2021/10/10 04:33:22;;;;;;;15.10;11.30;;;10.40;99.90;;;;;;4919955;29;20463;-92
2021/10/10 04:35:54;;;;;;;20.77;11.80;;;8.40;99.90;;;;;;4938110;29;20541;-91
2021/10/10 04:38:42;;;;;;;17.00;13.10;;;10.70;99.90;;;;;;4937610;29;20400;-91
2021/10/10 04:41:11;;;;;;;14.50;13.00;;;8.50;99.90;;;;;;4936104;29;20454;-92
2021/10/10 04:43:37;;;;;;;14.40;12.77;;;;;;;;;;4935785;29;20432;-92
2021/10/10 04:46:04;;;;;;;15.10;13.50;;;7.50;99.90;;;;;;4935742;29;20429;-92
2021/10/10 04:48:58;;;;;;;16.50;13.77;;;7.60;99.90;;;;;;4932843;29;20391;-91
2021/10/10 04:51:25;;;;;;;19.60;12.83;;;7.60;99.90;;;;;;4939972;29;20447;-92
2021/10/10 04:54:34;;;;;;;13.67;12.17;;;8.60;99.90;;;;;;4940161;29;20420;-91
2021/10/10 04:57:12;;;;;;;14.63;10.00;;;9.10;99.90;;;;;;4941733;29;20460;-92
2021/10/10 04:59:49;;;;;;;11.70;10.50;;;7.90;99.90;;;;;;4936914;29;20383;-92
2021/10/10 05:02:22;;;;;;;11.50;9.80;;;10.00;99.90;;;;;;4937744;29;20420;-91
2021/10/10 05:04:53;;;;;;;10.57;9.70;;;10.40;99.90;;;;;;4941559;29;20430;-92
2021/10/10 05:07:27;;;;;;;13.32;11.93;;;8.40;99.90;;;;;;4938012;29;20416;-92
2021/10/10 05:09:55;;;;;;;14.10;11.50;;;8.00;99.90;;;;;;4924975;29;20172;-91
2021/10/10 05:12:26;;;;;;;12.20;11.00;;;7.90;99.90;;;;;;4941741;29;20420;-92
2021/10/10 05:14:56;;;;;;;17.63;12.33;;;4.60;99.40;;;;;;4938271;29;20427;-92
2021/10/10 05:17:24;;;;;;;13.63;12.23;;;;;;;;;;4939781;29;20460;-91
2021/10/10 05:19:51;;;;;;;13.07;11.77;;;7.40;99.90;;;;;;4938303;29;20424;-92
2021/10/10 05:22:22;;;;;;;18.15;12.60;;;10.50;99.90;;;;;;4937483;29;20504;-91
2021/10/10 05:24:48;;;;;;;14.67;11.43;;;7.40;99.90;;;;;;4939484;29;20187;-90
2021/10/10 05:27:25;;;;;;;13.47;11.70;;;8.90;99.90;;;;;;4939492;29;20470;-92
2021/10/10 05:29:56;;;;;;;15.27;13.17;;;6.90;99.90;;;;;;4933636;29;20188;-91
2021/10/10 05:32:25;;;;;;;16.73;13.57;;;;;;;;;;4937558;29;20432;-92
2021/10/10 05:34:51;;;;;;;14.23;12.70;;;;;;;;;;4922108;29;20427;-92
2021/10/10 05:37:17;;;;;;;12.47;11.20;;;7.00;99.90;;;;;;4936929;29;20499;-91
2021/10/10 05:39:44;;;;;;;15.63;13.80;;;7.10;99.90;;;;;;4936452;29;20467;-92
2021/10/10 05:42:10;;;;;;;16.33;13.10;;;;;;;;;;4936493;29;20877;-92
2021/10/10 05:44:38;;;;;;;14.87;13.27;;;6.80;99.90;;;;;;4936181;29;20275;-92
2021/10/10 05:47:04;;;;;;;15.73;13.40;;;8.90;99.90;;;;;;4936516;29;20505;-89
2021/10/10 05:49:31;;;;;;;16.10;14.47;;;9.20;99.90;;;;;;4938639;29;20412;-93
2021/10/10 05:52:01;;;;;;;18.17;14.13;;;7.80;99.90;;;;;;4937227;29;20556;-92
2021/10/10 05:54:29;;;;;;;20.77;13.80;;;5.30;99.90;;;;;;4921210;29;20428;-89
2021/10/10 05:57:00;;;;;;;16.43;14.73;;;6.60;99.90;;;;;;4918613;29;20606;-91
2021/10/10 05:59:28;;;;;;;15.80;14.00;;;7.10;99.90;;;;;;4920850;29;20412;-91
2021/10/10 06:01:54;;;;;;;18.50;13.60;;;7.10;99.90;;;;;;4935605;29;20436;-91
2021/10/10 06:04:29;;;;;;;14.77;12.60;;;6.80;99.90;;;;;;4937457;29;20395;-92
2021/10/10 06:07:05;;;;;;;15.07;12.97;;;7.00;99.90;;;;;;4937966;29;20219;-92
2021/10/10 06:09:31;;;;;;;13.17;11.83;;;;;;;;;;4935797;29;20424;-91
2021/10/10 06:11:59;;;;;;;14.27;12.83;;;6.60;99.90;;;;;;4936947;29;20456;-92
2021/10/10 06:14:29;;;;;;;13.00;11.70;;;7.50;99.90;;;;;;4936128;29;20463;-91
2021/10/10 06:16:59;;;;;;;13.57;12.23;;;4.80;99.90;;;;;;4937840;29;20599;-92
2021/10/10 06:19:28;;;;;;;15.00;12.67;;;7.60;99.90;;;;;;4935331;29;20409;-92
2021/10/10 06:21:53;;;;;;;13.50;12.30;;;6.20;99.90;;;;;;4594073;29;10000480;-90
2021/10/10 06:24:19;;;;;;;14.30;12.90;;;9.80;99.90;;;;;;4937245;29;20284;-92
2021/10/10 06:26:52;;;;;;;14.37;12.90;;;6.90;99.90;;;;;;4936037;29;20269;-91
2021/10/10 06:29:18;;;;;;;15.13;12.67;;;;;;;;;;4937468;29;20417;-92
2021/10/10 06:31:48;;;;;;;14.00;12.60;;;7.80;99.90;;;;;;4936807;29;20499;-92
2021/10/10 06:34:18;;;;;;;13.67;12.40;;;8.20;99.90;;;;;;4937797;29;20424;-90
2021/10/10 06:36:44;;;;;;;15.10;12.10;;;;;;;;;;4920116;29;20467;-92
2021/10/10 06:39:12;;;;;;;13.23;12.00;;;6.90;99.90;;;;;;4936662;29;20424;-91
2021/10/10 06:41:42;;;;;;;11.00;10.00;;;7.90;99.90;;;;;;4936317;29;20470;-91
2021/10/10 06:44:10;;;;;;;9.80;8.97;;;7.30;99.90;;;;;;4936778;29;20479;-91
2021/10/10 06:46:37;;;;;;;10.60;9.70;;;9.20;99.90;;;;;;4904968;29;20444;-91
2021/10/10 06:49:06;;;;;;;9.63;8.60;;;9.50;99.90;;;;;;4936944;29;20493;-90
2021/10/10 06:51:32;;;;;;;8.97;8.37;;;9.60;99.90;;;;;;4938487;29;20503;-91
2021/10/10 06:54:02;;;;;;;8.67;7.90;;;10.70;99.20;;;;;;4938545;29;20407;-92
2021/10/10 06:56:30;;;;;;;8.50;7.90;;;10.30;95.30;;;;;;4937750;29;20227;-90
2021/10/10 06:59:01;;;;;;;9.20;8.50;;;12.80;96.10;;;;;;4937349;29;20416;-92
2021/10/10 07:01:27;;;;;;;10.03;9.10;;;11.20;91.30;;;;;;4918697;29;20433;-92
2021/10/10 07:03:55;;;;;;;8.67;8.07;;;10.80;94.20;;;;;;4936810;29;20536;-92
2021/10/10 07:06:21;;;;;;;9.33;8.53;;;13.20;93.80;;;;;;4922927;29;20180;-90
2021/10/10 07:08:47;;;;;;;8.53;7.90;;;12.50;87.50;;;;;;4915884;29;20442;-90
2021/10/10 07:11:13;;;;;;;9.20;8.30;;;;;;;;;;4915451;29;20648;-90
2021/10/10 07:13:38;;;;;;;8.83;8.23;;;13.70;75.10;;;;;;4915349;29;20175;-90
2021/10/10 07:16:04;;;;;;;9.00;8.20;;;15.20;75.80;;;;;;4917153;29;20466;-89
2021/10/10 07:18:47;;;;;;;8.33;7.93;;;14.20;69.70;;;;;;4916389;29;20187;-88
2021/10/10 07:21:22;;;;;;;9.60;9.00;;;14.60;66.90;;;;;;4937881;29;20187;-91
2021/10/10 07:26:42;;;;;;;8.33;7.77;;;15.40;75.10;;;;;;4935444;29;20414;-90
2021/10/10 07:29:07;;;;;;;8.30;7.80;;;14.80;67.70;;;;;;4930140;29;21145;-92
2021/10/10 07:31:40;;;;;;;9.10;8.27;;;17.90;68.80;;;;;;4928312;29;20498;-94
2021/10/10 07:34:06;;;;;;;8.73;8.13;;;18.30;62.90;;;;;;4921697;29;20504;-92
2021/10/10 07:36:33;;;;;;;9.70;9.00;;;19.80;66.30;;;;;;4918827;29;20527;-93
2021/10/10 07:38:59;;;;;;;10.20;9.30;;;17.60;60.00;;;;;;4915269;29;20184;-94
2021/10/10 07:41:24;;;;;;;9.90;8.97;;;19.20;59.30;;;;;;4915580;29;20420;-93
2021/10/10 07:43:50;;;;;;;10.17;8.90;;;18.80;58.90;;;;;;4917997;29;20180;-94
2021/10/10 07:46:20;;;;;;;9.67;8.67;;;17.90;57.80;;;;;;4919913;29;20270;-93
2021/10/10 07:48:47;;;;;;;9.43;8.80;;;19.00;56.40;;;;;;4917232;29;20192;-93
2021/10/10 07:51:13;;;;;;;9.80;9.20;;;18.70;66.30;;;;;;4919339;29;20441;-91
2021/10/10 07:53:39;;;;;;;12.13;11.20;;;19.10;57.80;;;;;;4918527;29;20519;-93
2021/10/10 07:56:04;;;;;;;10.70;9.90;;;19.20;57.70;;;;;;4919527;29;20511;-93
2021/10/10 07:58:30;;;;;;;10.70;9.83;;;22.00;61.50;;;;;;4924269;29;20184;-92
2021/10/10 08:00:59;;;;;;;10.67;9.87;;;17.90;55.20;;;;;;4912456;29;20260;-94
2021/10/10 08:03:27;;;;;;;10.87;10.03;;;23.00;57.30;;;;;;4928004;29;20423;-93
2021/10/10 08:06:01;;;;;;;11.73;10.73;;;17.00;54.80;;;;;;4926836;29;20432;-94
2021/10/10 08:08:29;;;;;;;11.43;10.63;;;20.10;54.70;;;;;;4899034;29;20436;-94
2021/10/10 08:10:55;;;;;;;10.97;10.20;;;22.40;56.40;;;;;;4916416;29;20412;-94
2021/10/10 08:13:23;;;;;;;11.70;10.73;;;20.50;76.00;;;;;;4928643;29;20450;-93
2021/10/10 08:16:00;;;;;;;11.33;10.40;;;20.60;56.90;;;;;;4913183;29;20212;-94
2021/10/10 08:18:26;;;;;;;10.10;9.40;;;20.70;57.10;;;;;;4931119;29;20414;-94
2021/10/10 08:20:53;;;;;;;11.30;10.53;;;21.90;51.90;;;;;;4930094;29;20424;-93
2021/10/10 08:23:19;;;;;;;11.27;10.33;;;22.70;52.50;;;;;;4928913;29;20310;-94
2021/10/10 08:25:47;;;;;;;11.77;10.77;;;22.60;50.90;;;;;;4923472;29;20754;-93
2021/10/10 08:28:24;;;;;;;10.80;10.03;;;22.70;51.20;;;;;;4925484;29;20243;-94
2021/10/10 08:30:50;;;;;;;11.57;10.80;;;20.90;49.80;;;;;;4928930;29;20424;-91
2021/10/10 08:33:18;;;;;;;11.90;10.90;;;;;;;;;;4924622;29;20904;-91
2021/10/10 08:35:44;;;;;;;11.57;10.73;;;;;;;;;;4929181;29;20211;-92
2021/10/10 08:38:11;;;;;;;11.10;10.00;;;;;;;;;;4928122;29;20432;-92
2021/10/10 08:40:37;;;;;;;12.60;11.50;;;;;;;;;;4929550;29;20416;-94
2021/10/10 08:43:05;;;;;;;11.73;10.63;;;;;;;;;;4914136;29;20431;-93
2021/10/10 08:45:32;;;;;;;10.87;9.97;;;;;;;;;;4906524;29;20417;-93
2021/10/10 08:47:58;;;;;;;12.20;11.13;;;;;;;;;;4911135;29;20444;-94
2021/10/10 08:50:29;;;;;;;13.70;11.80;;;;;;;;;;4910652;29;20891;-94
2021/10/10 08:52:57;;;;;;;11.00;10.20;;;;;;;;;;4928651;29;20431;-94
2021/10/10 08:55:25;;;;;;;11.50;10.43;;;;;;;;;;4911878;29;20458;-92
2021/10/10 08:57:51;;;;;;;11.37;10.57;;;;;;;;;;4908776;29;20731;-92
2021/10/10 09:00:30;;;;;;;12.20;11.00;;;;;;;;;;4912455;29;20409;-91
2021/10/10 09:02:56;;;;;;;10.80;9.93;;;;;;;;;;4571830;29;10000383;-91
2021/10/10 09:05:24;;;;;;;11.33;10.53;;;;;;;;;;4920733;29;20230;-92
2021/10/10 09:07:54;;;;;;;10.53;9.70;;;;;;;;;;4920747;29;20424;-92
2021/10/10 09:10:24;;;;;;;11.00;9.90;;;;;;;;;;4921383;29;20800;-90
2021/10/10 09:12:50;;;;;;;10.90;10.10;;;;;;;;;;4924488;29;20475;-92
2021/10/10 09:15:17;;;;;;;11.97;11.07;;;;;;;;;;4924341;29;20463;-88
2021/10/10 09:17:52;;;;;;;10.77;9.97;;;;;;;;;;4926417;29;20478;-89
2021/10/10 09:20:25;;;;;;;45.37;14.80;;;;;;;;;;4919895;29;20432;-90
2021/10/10 09:22:53;;;;;;;10.57;9.77;;;;;;;;;;4923337;29;20554;-90
2021/10/10 09:25:19;;;;;;;10.87;10.13;;;;;;;;;;4924051;29;20411;-89
2021/10/10 09:27:45;;;;;;;10.83;10.13;;;;;;;;;;4926226;29;20913;-90
2021/10/10 09:30:11;;;;;;;10.40;9.63;;;;;;;;;;4928848;29;20416;-89
2021/10/10 09:32:42;;;;;;;10.13;9.53;;;;;;;;;;4930405;29;20431;-90
2021/10/10 09:35:08;;;;;;;10.37;9.40;;;;;;;;;;4928727;29;20967;-89
2021/10/10 09:37:44;;;;;;;12.27;11.27;;;;;;;;;;4926448;29;20480;-90
2021/10/10 09:40:15;;;;;;;12.17;11.17;;;;;;;;;;4934358;29;20535;-87
2021/10/10 09:43:10;;;;;;;12.90;11.60;;;;;;;;;;4928031;29;20879;-90
2021/10/10 09:45:41;;;;;;;10.10;9.23;;;;;;;;;;4920728;29;20527;-89
2021/10/10 09:48:11;;;;;;;10.57;9.83;;;;;;;;;;4928436;29;20420;-87
2021/10/10 09:50:40;;;;;;;10.63;9.93;;;;;;;;;;4928025;29;20447;-89
2021/10/10 09:53:08;;;;;;;10.00;9.27;;;;;;;;;;4927834;29;20459;-89
2021/10/10 09:56:03;;;;;;;13.60;11.03;;;;;;;;;;4929083;29;20436;-88
2021/10/10 09:58:35;;;;;;;11.60;10.80;;;;;;;;;;4911341;29;20413;-87
2021/10/10 10:01:15;;;;;;;14.30;13.20;;;;;;;;;;4905842;29;20417;-90
2021/10/10 10:03:57;;;;;;;12.47;11.37;;;;;;;;;;4908480;29;20847;-90
2021/10/10 10:06:23;;;;;;;10.40;9.60;;;;;;;;;;4909344;29;20436;-91
2021/10/10 10:08:53;;;;;;;11.77;10.60;;;;;;;;;;4908888;29;20504;-90
2021/10/10 10:11:19;;;;;;;12.33;11.23;;;;;;;;;;4906807;29;20921;-89
2021/10/10 10:13:46;;;;;;;10.83;10.13;;;;;;;;;;4904738;29;20432;-91
2021/10/10 10:16:16;;;;;;;11.47;10.47;;;;;;;;;;4919197;29;20491;-91
2021/10/10 10:18:42;;;;;;;12.27;11.10;;;;;;;;;;4920647;29;20427;-89
2021/10/10 10:21:21;;;;;;;10.93;10.00;;;;;;;;;;4920674;29;20458;-90
2021/10/10 10:23:57;;;;;;;12.40;10.67;;;;;;;;;;4904649;29;20468;-90
2021/10/10 10:26:23;;;;;;;11.60;10.70;;;;;;;;;;4907561;29;20415;-88
2021/10/10 10:31:36;;;;;;;11.37;10.40;;;;;;;;;;4906497;29;20503;-90
2021/10/10 10:34:19;;;;;;;10.90;10.10;;;;;;;;;;4906389;29;20449;-90
2021/10/10 10:36:57;;;;;;;12.20;10.30;;;;;;;;;;4889103;29;20836;-91
2021/10/10 10:39:47;;;;;;;11.63;10.73;;;;;;;;;;4889944;29;20432;-91
2021/10/10 10:42:15;;;;;;;11.67;10.77;;;;;;;;;;4889745;29;20437;-91
2021/10/10 10:44:51;;;;;;;10.90;10.00;;;;;;;;;;4884605;29;20421;-89
2021/10/10 10:47:42;;;;;;;11.23;10.50;;;;;;;;;;4888699;29;20811;-90
2021/10/10 10:50:29;;;;;;;11.80;10.80;;;;;;;;;;4884691;29;20449;-90
2021/10/10 10:53:02;;;;;;;11.90;10.80;;;;;;;;;;4883619;29;20478;-91
2021/10/10 10:55:31;;;;;;;11.60;10.70;;;;;;;;;;4893411;29;20477;-89
2021/10/10 10:58:06;;;;;;;11.63;10.73;;;;;;;;;;4890633;29;20428;-89
2021/10/10 11:00:36;;;;;;;12.37;11.30;;;;;;;;;;4886418;29;20924;-91
2021/10/10 11:03:10;;;;;;;12.03;10.90;;;;;;;;;;4904571;29;20445;-91
2021/10/10 11:05:38;;;;;;;11.43;10.37;;;;;;;;;;4885224;29;20480;-91
2021/10/10 11:08:07;;;;;;;12.53;11.63;;;;;;;;;;4883753;29;20477;-91
2021/10/10 11:10:34;;;;;;;13.73;12.40;;;;;;;;;;4882534;29;20792;-92
2021/10/10 11:13:06;;;;;;;11.70;10.80;;;;;;;;;;4900102;29;20421;-90
2021/10/10 11:16:06;;;;;;;11.20;10.37;;;;;;;;;;4903322;29;20415;-91
2021/10/10 11:18:36;;;;;;;11.87;10.97;;;;;;;;;;4884234;29;20429;-91
2021/10/10 11:21:08;;;;;;;12.73;11.33;;;;;;;;;;4886507;29;20416;-92
2021/10/10 11:23:35;;;;;;;11.83;10.93;;;;;;;;;;4898267;29;20478;-90
2021/10/10 11:26:05;;;;;;;11.23;10.20;;;;;;;;;;4899512;29;20443;-92
2021/10/10 11:28:36;;;;;;;12.33;11.13;;;;;;;;;;4903682;29;20848;-91
2021/10/10 11:31:18;;;;;;;11.40;10.50;;;;;;;;;;4900721;29;20462;-89
2021/10/10 11:33:46;;;;;;;11.67;10.83;;;;;;;;;;4902103;29;20429;-91
2021/10/10 11:36:12;;;;;;;13.80;12.70;;;;;;;;;;4901655;29;20984;-90
2021/10/10 11:38:57;;;;;;;13.90;12.90;;;;;;;;;;4898193;29;21004;-90
2021/10/10 11:41:24;;;;;;;13.93;12.83;;;;;;;;;;4900875;29;20472;-90
2021/10/10 11:44:05;;;;;;;13.43;12.23;;;;;;;;;;4903078;29;20413;-91
2021/10/10 11:46:45;;;;;;;14.20;12.90;;;;;;;;;;4904389;29;20445;-90
2021/10/10 11:49:40;;;;;;;11.83;10.70;;;;;;;;;;4908239;29;20409;-89
2021/10/10 11:54:56;;;;;;;10.83;9.80;;;24.20;38.60;;;;;;4903056;29;20868;-89
2021/10/10 11:57:21;;;;;;;13.40;10.90;;;24.50;38.30;;;;;;4904005;29;20814;-86
2021/10/10 11:59:52;;;;;;;11.30;10.43;;;24.20;38.30;;;;;;4903484;29;20427;-88
2021/10/10 12:02:37;;;;;;;10.80;10.00;;;24.60;38.70;;;;;;4900923;29;20626;-90
2021/10/10 12:05:05;;;;;;;12.03;10.93;;;25.60;37.90;;;;;;4897910;29;20425;-91
2021/10/10 12:07:31;;;;;;;12.40;11.53;;;26.50;37.60;;;;;;4900733;29;20420;-91
2021/10/10 12:09:58;;;;;;;12.73;11.23;;;28.50;37.40;;;;;;4902718;29;20473;-88
2021/10/10 12:12:23;;;;;;;12.90;11.80;;;28.10;36.10;;;;;;4901293;29;20903;-90
2021/10/10 12:14:54;;;;;;;13.37;12.30;;;28.50;35.90;;;;;;4901665;29;20431;-89
2021/10/10 12:17:47;;;;;;;11.53;10.53;;;28.00;34.70;;;;;;4902239;29;20307;-87
2021/10/10 12:20:30;;;;;;;11.63;10.73;;;28.30;34.70;;;;;;4909883;29;20428;-90
2021/10/10 12:23:01;;;;;;;12.17;10.80;;;29.10;34.90;;;;;;4909528;29;20472;-90
2021/10/10 12:25:33;;;;;;;11.50;10.10;;;;;;;;;;4909461;29;20485;-92
2021/10/10 12:28:01;;;;;;;10.80;10.07;;;;;;;;;;4909955;29;20932;-91
2021/10/10 12:30:56;;;;;;;10.00;9.13;;;;;;;;;;4907446;29;21004;-91
2021/10/10 12:33:30;;;;;;;11.07;10.37;;;;;;;;;;4907376;29;20477;-92
2021/10/10 12:35:56;;;;;;;11.87;10.87;;;;;;;;;;4909806;29;20492;-90
2021/10/10 12:38:42;;;;;;;12.50;11.60;;;;;;;;;;4905317;29;20433;-90
2021/10/10 12:41:20;;;;;;;11.00;10.30;;;;;;;;;;4904521;29;20457;-91
2021/10/10 12:43:55;;;;;;;11.80;11.00;;;;;;;;;;4904607;29;20437;-91
2021/10/10 12:46:21;;;;;;;12.37;11.33;;;;;;;;;;4903948;29;20471;-90
2021/10/10 12:49:04;;;;;;;12.07;10.90;;;28.30;33.80;;;;;;4909836;29;20421;-89
2021/10/10 12:51:31;;;;;;;11.50;10.63;;;28.20;35.00;;;;;;4907803;29;20409;-90
2021/10/10 12:54:23;;;;;;;11.30;10.40;;;29.20;35.20;;;;;;4906858;29;20435;-88
2021/10/10 12:57:13;;;;;;;9.80;9.20;;;28.90;34.70;;;;;;4906422;29;20547;-90
2021/10/10 12:59:39;;;;;;;11.93;10.67;;;28.30;34.60;;;;;;4905400;29;20424;-91
2021/10/10 13:02:09;;;;;;;11.20;10.40;;;28.30;34.80;;;;;;4907829;29;20408;-90
2021/10/10 13:04:36;;;;;;;10.70;9.90;;;29.20;35.00;;;;;;4905332;29;20421;-91
2021/10/10 13:07:03;;;;;;;10.73;9.83;;;29.60;34.90;;;;;;4905342;29;20413;-90
2021/10/10 13:09:29;;;;;;;10.57;9.87;;;29.10;33.90;;;;;;4911556;29;20425;-88
2021/10/10 13:12:02;;;;;;;11.37;10.47;;;29.60;34.90;;;;;;4570953;29;10000572;-92
2021/10/10 13:14:33;;;;;;;9.73;9.13;;;29.70;34.00;;;;;;4894638;29;20597;-92
2021/10/10 13:17:00;;;;;;;9.37;8.67;;;29.80;33.30;;;;;;4913140;29;20477;-88
2021/10/10 13:19:25;;;;;;;11.27;10.37;;;29.30;33.00;;;;;;4889341;29;20961;-90
2021/10/10 13:21:53;;;;;;;11.47;10.30;;;29.20;34.90;;;;;;4890907;29;20467;-87
2021/10/10 13:24:32;;;;;;;9.20;8.50;;;29.50;33.00;;;;;;4912048;29;20192;-91
2021/10/10 13:26:58;;;;;;;10.40;9.50;;;29.40;32.80;;;;;;4925784;29;20427;-90
2021/10/10 13:29:32;;;;;;;10.33;9.33;;;30.70;34.20;;;;;;4912667;29;20955;-89
2021/10/10 13:31:58;;;;;;;10.83;9.87;;;28.80;34.40;;;;;;4932932;29;20175;-90
2021/10/10 13:34:32;;;;;;;11.90;10.90;;;27.60;35.20;;;;;;4916312;29;20450;-90
2021/10/10 13:36:58;;;;;;;12.00;10.90;;;27.80;34.50;;;;;;4912481;29;20580;-91
2021/10/10 13:39:24;;;;;;;19.77;18.07;;;27.80;35.80;;;;;;4927891;29;20498;-91
2021/10/10 13:41:51;;;;;;;11.53;10.43;;;28.80;37.60;;;;;;4911157;29;20180;-91
2021/10/10 13:44:16;;;;;;;11.07;10.07;;;27.40;37.30;;;;;;4913197;29;20580;-86